createdAt,value
2023-01-08T00:03:24.555Z,85.05
2023-01-08T00:08:26.030Z,85.40
2023-01-08T00:13:27.895Z,86.63
2023-01-08T00:18:29.333Z,87.24
2023-01-08T00:23:31.487Z,86.59
2023-01-08T00:28:33.666Z,86.57
2023-01-08T00:33:36.162Z,87.57
2023-01-08T00:38:37.786Z,87.43
2023-01-08T00:43:39.416Z,87.24
2023-01-08T00:48:40.889Z,87.48
2023-01-08T00:53:42.348Z,87.23
2023-01-08T00:58:43.827Z,88.03
2023-01-08T01:03:45.511Z,86.96
2023-01-08T01:08:46.995Z,86.79
2023-01-08T01:13:49.157Z,86.44
2023-01-08T01:18:52.326Z,86.71
2023-01-08T01:23:56.021Z,87.34
2023-01-08T01:28:58.390Z,88.34
2023-01-08T01:34:00.525Z,89.78
2023-01-08T01:39:01.999Z,88.85
2023-01-08T01:44:37.159Z,89.33
2023-01-08T01:49:41.349Z,88.79
2023-01-08T01:54:42.814Z,88.78
2023-01-08T01:59:45.969Z,88.50
2023-01-08T02:04:47.457Z,89.19
2023-01-08T02:09:54.930Z,89.86
2023-01-08T02:15:14.261Z,89.88
2023-01-08T02:20:54.624Z,89.80
2023-01-08T02:26:26.283Z,90.74
2023-01-08T02:31:30.065Z,89.99
2023-01-08T02:36:37.319Z,90.24
2023-01-08T02:41:56.932Z,90.49
2023-01-08T02:47:00.694Z,89.93
2023-01-08T02:52:05.430Z,89.73
2023-01-08T02:57:12.648Z,89.58
2023-01-08T03:02:14.265Z,89.65
2023-01-08T03:07:15.821Z,90.01
2023-01-08T03:12:24.706Z,90.09
2023-01-08T03:17:37.582Z,90.53
2023-01-08T03:22:41.767Z,90.78
2023-01-08T03:27:48.392Z,91.19
2023-01-08T03:32:51.952Z,91.33
2023-01-08T03:38:25.569Z,91.60
2023-01-08T03:43:28.191Z,91.47
2023-01-08T03:48:33.247Z,91.72
2023-01-08T03:53:34.695Z,91.57
2023-01-08T03:58:36.080Z,91.70
2023-01-08T04:03:37.503Z,91.68
2023-01-08T04:08:38.890Z,91.52
2023-01-08T04:13:40.280Z,92.15
2023-01-08T04:18:41.742Z,93.04
2023-01-08T04:23:43.231Z,92.21
2023-01-08T04:28:44.652Z,92.33
2023-01-08T04:33:46.101Z,92.71
2023-01-08T04:38:47.655Z,92.95
2023-01-08T04:43:49.085Z,93.64
2023-01-08T04:48:50.470Z,93.01
2023-01-08T04:53:52.147Z,93.82
2023-01-08T04:58:53.615Z,94.05
2023-01-08T05:04:00.011Z,95.17
2023-01-08T05:09:01.451Z,95.48
2023-01-08T05:14:03.129Z,95.20
2023-01-08T05:19:04.689Z,95.43
2023-01-08T05:24:06.433Z,95.12
2023-01-08T05:29:07.915Z,95.44
2023-01-08T05:34:09.404Z,95.07
2023-01-08T05:39:11.128Z,95.95
2023-01-08T05:44:12.873Z,98.32
2023-01-08T05:49:16.194Z,100.00
2023-01-08T05:54:18.289Z,100.00
2023-01-08T05:59:19.745Z,100.00
2023-01-08T06:04:21.455Z,100.00
2023-01-08T06:09:22.857Z,100.00
2023-01-08T06:14:24.696Z,100.00
2023-01-08T06:19:26.126Z,100.00
2023-01-08T06:24:27.581Z,100.00
2023-01-08T06:29:29.019Z,100.00
2023-01-08T06:34:30.431Z,100.00
2023-01-08T06:39:31.877Z,100.00
2023-01-08T06:44:33.347Z,99.35
2023-01-08T06:49:34.790Z,98.98
2023-01-08T06:54:36.213Z,99.42
2023-01-08T06:59:37.606Z,99.06
2023-01-08T07:04:39.025Z,99.53
2023-01-08T07:09:41.880Z,99.59
2023-01-08T07:14:43.263Z,100.00
2023-01-08T07:19:44.681Z,100.00
2023-01-08T07:24:46.104Z,99.90
2023-01-08T07:29:47.612Z,100.00
2023-01-08T07:34:49.118Z,100.00
2023-01-08T07:39:52.955Z,100.00
2023-01-08T07:44:54.470Z,100.00
2023-01-08T07:49:55.871Z,100.00
2023-01-08T07:54:57.361Z,100.00
2023-01-08T07:59:58.790Z,100.00
2023-01-08T08:05:00.223Z,100.00
2023-01-08T08:10:02.714Z,100.00
2023-01-08T08:15:04.651Z,100.00
2023-01-08T08:20:06.886Z,100.00
2023-01-08T08:25:09.107Z,100.00
2023-01-08T08:30:12.245Z,100.00
2023-01-08T08:35:13.698Z,100.00
2023-01-08T08:40:15.358Z,100.00
2023-01-08T08:45:16.832Z,100.00
2023-01-08T08:50:19.354Z,100.00
2023-01-08T08:55:20.834Z,100.00
2023-01-08T09:00:23.418Z,100.00
2023-01-08T09:05:26.217Z,100.00
2023-01-08T09:10:27.810Z,100.00
2023-01-08T09:15:29.303Z,100.00
2023-01-08T09:20:31.341Z,100.00
2023-01-08T09:25:32.945Z,100.00
2023-01-08T09:30:34.613Z,100.00
2023-01-08T09:35:36.406Z,100.00
2023-01-08T09:40:44.429Z,100.00
2023-01-08T09:45:51.013Z,100.00
2023-01-08T09:50:52.905Z,100.00
2023-01-08T09:56:10.032Z,100.00
2023-01-08T10:01:17.911Z,100.00
2023-01-08T10:06:19.695Z,100.00
2023-01-08T10:11:22.487Z,100.00
2023-01-08T10:16:31.013Z,100.00
2023-01-08T10:21:38.225Z,100.00
2023-01-08T10:26:39.823Z,99.94
2023-01-08T10:31:51.900Z,99.46
2023-01-08T10:36:55.148Z,98.87
2023-01-08T10:42:04.257Z,98.64
2023-01-08T10:47:06.387Z,97.65
2023-01-08T10:52:29.777Z,96.67
2023-01-08T10:57:32.802Z,95.16
2023-01-08T11:02:38.913Z,94.24
2023-01-08T11:07:41.467Z,93.44
2023-01-08T11:12:42.987Z,91.09
2023-01-08T11:17:45.061Z,89.88
2023-01-08T11:22:46.774Z,88.74
2023-01-08T11:27:51.191Z,85.42
2023-01-08T11:33:06.147Z,81.90
2023-01-08T11:38:10.199Z,79.42
2023-01-08T11:43:34.711Z,79.09
2023-01-08T11:48:57.956Z,80.06
2023-01-08T11:54:33.386Z,80.55
2023-01-08T12:00:02.681Z,80.56
2023-01-08T12:05:37.049Z,82.09
2023-01-08T12:11:33.108Z,82.59
2023-01-08T12:17:04.253Z,82.93
2023-01-08T12:22:20.998Z,83.50
2023-01-08T12:27:55.338Z,82.63
2023-01-08T12:33:13.366Z,82.33
2023-01-08T12:38:30.791Z,82.25
2023-01-08T12:43:43.846Z,82.81
2023-01-08T12:48:51.699Z,82.77
2023-01-08T12:54:07.436Z,82.53
2023-01-08T12:59:21.921Z,82.60
2023-01-08T13:04:23.628Z,82.80
2023-01-08T13:09:26.691Z,82.63
2023-01-08T13:14:28.700Z,82.13
2023-01-08T13:19:38.419Z,82.14
2023-01-08T13:24:42.746Z,81.85
2023-01-08T13:29:51.472Z,81.30
2023-01-08T13:35:17.059Z,81.78
2023-01-08T13:40:44.857Z,81.61
2023-01-08T13:45:59.945Z,81.71
2023-01-08T13:51:01.666Z,80.96
2023-01-08T13:56:07.862Z,81.43
2023-01-08T14:01:10.602Z,80.78
2023-01-08T14:06:18.262Z,80.60
2023-01-08T14:11:22.647Z,80.97
2023-01-08T14:16:24.660Z,81.48
2023-01-08T14:21:26.829Z,81.49
2023-01-08T14:26:36.529Z,81.75
2023-01-08T14:31:38.036Z,82.19
2023-01-08T14:36:41.356Z,82.21
2023-01-08T14:42:01.857Z,82.52
2023-01-08T14:47:03.764Z,82.72
2023-01-08T14:52:05.475Z,82.54
2023-01-08T14:57:07.033Z,82.76
2023-01-08T15:02:22.054Z,83.11
2023-01-08T15:07:29.795Z,83.18
2023-01-08T15:12:32.422Z,83.68
2023-01-08T15:17:33.972Z,83.86
2023-01-08T15:22:36.402Z,83.68
2023-01-08T15:27:39.760Z,84.15
2023-01-08T15:32:41.240Z,83.76
2023-01-08T15:37:42.816Z,84.22
2023-01-08T15:43:03.282Z,84.58
2023-01-08T15:48:04.976Z,83.84
2023-01-08T15:53:18.587Z,83.99
2023-01-08T15:58:20.012Z,84.40
2023-01-08T16:03:24.160Z,84.51
2023-01-08T16:08:25.581Z,84.11
2023-01-08T16:13:27.031Z,84.39
2023-01-08T16:18:28.656Z,84.20
2023-01-08T16:23:30.214Z,84.84
2023-01-08T16:28:31.624Z,84.84
2023-01-08T16:33:33.116Z,84.72
2023-01-08T16:38:35.955Z,84.13
2023-01-08T16:43:41.336Z,83.20
2023-01-08T16:48:42.926Z,83.34
2023-01-08T16:53:44.341Z,83.11
2023-01-08T16:58:50.052Z,83.47
2023-01-08T17:03:51.624Z,82.90
2023-01-08T17:08:53.064Z,82.94
2023-01-08T17:13:54.593Z,82.85
2023-01-08T17:18:57.082Z,82.64
2023-01-08T17:23:58.565Z,82.54
2023-01-08T17:29:00.038Z,83.19
2023-01-08T17:34:01.995Z,82.74
2023-01-08T17:39:03.637Z,82.45
2023-01-08T17:44:07.019Z,81.83
2023-01-08T17:49:11.341Z,81.87
2023-01-08T17:54:16.842Z,82.56
2023-01-08T17:59:20.122Z,82.39
2023-01-08T18:04:21.757Z,82.91
2023-01-08T18:09:23.275Z,82.99
2023-01-08T18:14:24.898Z,83.31
2023-01-08T18:19:26.555Z,83.34
2023-01-08T18:24:28.110Z,83.76
2023-01-08T18:29:29.713Z,84.17
2023-01-08T18:34:31.157Z,85.00
2023-01-08T18:39:33.240Z,84.33
2023-01-08T18:44:34.737Z,85.15
2023-01-08T18:49:36.159Z,84.79
2023-01-08T18:54:37.593Z,85.08
2023-01-08T18:59:39.062Z,85.05
2023-01-08T19:04:40.431Z,85.09
2023-01-08T19:09:41.908Z,85.22
2023-01-08T19:14:44.031Z,85.99
2023-01-08T19:19:46.229Z,85.90
2023-01-08T19:24:47.676Z,85.80
2023-01-08T19:29:49.654Z,86.28
2023-01-08T19:34:53.416Z,86.51
2023-01-08T19:39:54.970Z,86.56
2023-01-08T19:44:57.404Z,86.34
2023-01-08T19:49:58.969Z,86.46
2023-01-08T19:55:01.589Z,87.00
2023-01-08T20:00:04.607Z,87.17
2023-01-08T20:05:06.248Z,88.15
2023-01-08T20:10:10.966Z,88.47
2023-01-08T20:15:12.682Z,88.52
2023-01-08T20:20:14.151Z,88.42
2023-01-08T20:25:15.685Z,89.08
2023-01-08T20:30:17.465Z,89.09
2023-01-08T20:35:18.950Z,89.28
2023-01-08T20:40:20.401Z,90.13
2023-01-08T20:45:21.911Z,90.15
2023-01-08T20:50:23.385Z,90.74
2023-01-08T20:55:25.000Z,91.45
2023-01-08T21:00:26.487Z,93.08
2023-01-08T21:05:27.975Z,93.15
2023-01-08T21:10:29.502Z,93.84
2023-01-08T21:15:31.012Z,93.40
2023-01-08T21:20:32.468Z,94.24
2023-01-08T21:25:35.118Z,93.80
2023-01-08T21:30:36.573Z,95.43
2023-01-08T21:35:38.738Z,96.33
2023-01-08T21:40:40.229Z,95.68
2023-01-08T21:45:42.030Z,95.42
2023-01-08T21:50:44.042Z,95.50
2023-01-08T21:55:46.445Z,96.35
2023-01-08T22:00:47.950Z,96.76
2023-01-08T22:06:00.603Z,98.62
2023-01-08T22:11:07.688Z,97.68
2023-01-08T22:16:10.596Z,97.58
2023-01-08T22:21:13.028Z,97.71
2023-01-08T22:26:14.482Z,97.52
2023-01-08T22:31:16.387Z,97.52
2023-01-08T22:36:17.978Z,97.83
2023-01-08T22:41:22.043Z,98.61
2023-01-08T22:46:24.535Z,99.47
2023-01-08T22:51:27.576Z,100.00
2023-01-08T22:56:29.101Z,100.00
2023-01-08T23:01:30.886Z,100.00
2023-01-08T23:06:33.030Z,100.00
2023-01-08T23:11:34.568Z,100.00
2023-01-08T23:16:36.033Z,100.00
2023-01-08T23:21:38.654Z,100.00
2023-01-08T23:26:40.116Z,100.00
2023-01-08T23:31:43.960Z,100.00
2023-01-08T23:36:45.449Z,100.00
2023-01-08T23:41:46.843Z,100.00
2023-01-08T23:46:48.265Z,100.00
2023-01-08T23:51:49.671Z,100.00
2023-01-08T23:56:51.181Z,100.00
